createdAt,value
2023-06-11T00:00:35.728Z,36
2023-06-11T00:03:06.738Z,38
2023-06-11T00:05:37.861Z,38
2023-06-11T00:08:09.790Z,32
2023-06-11T00:10:40.655Z,43
2023-06-11T00:13:11.920Z,40
2023-06-11T00:15:42.645Z,40
2023-06-11T00:18:13.645Z,40
2023-06-11T00:20:44.509Z,38
2023-06-11T00:23:15.076Z,32
2023-06-11T00:25:47.899Z,32
2023-06-11T00:28:17.134Z,37
2023-06-11T00:30:48.079Z,35
2023-06-11T00:33:18.945Z,36
2023-06-11T00:35:50.916Z,40
2023-06-11T00:38:23.569Z,45
2023-06-11T00:40:55.368Z,32
2023-06-11T00:43:24.465Z,44
2023-06-11T00:45:55.373Z,39
2023-06-11T00:48:26.072Z,38
2023-06-11T00:50:57.398Z,34
2023-06-11T00:53:28.162Z,37
2023-06-11T00:55:58.610Z,39
2023-06-11T00:58:32.163Z,34
2023-06-11T01:01:04.122Z,44
2023-06-11T01:03:39.377Z,32
2023-06-11T01:06:10.090Z,38
2023-06-11T01:08:43.771Z,41
2023-06-11T01:11:14.606Z,36
2023-06-11T01:13:46.439Z,32
2023-06-11T01:16:18.022Z,40
2023-06-11T01:18:48.761Z,37
2023-06-11T01:21:20.819Z,33
2023-06-11T01:23:52.047Z,33
2023-06-11T01:26:23.189Z,35
2023-06-11T01:28:54.230Z,35
2023-06-11T01:31:24.861Z,34
2023-06-11T01:33:55.621Z,33
2023-06-11T01:36:26.667Z,36
2023-06-11T01:38:57.402Z,32
2023-06-11T01:41:26.848Z,35
2023-06-11T01:43:57.915Z,36
2023-06-11T01:46:27.780Z,32
2023-06-11T01:49:00.046Z,32
2023-06-11T01:51:31.275Z,38
2023-06-11T01:54:03.210Z,32
2023-06-11T01:56:35.420Z,31
2023-06-11T01:59:06.384Z,32
2023-06-11T02:01:37.904Z,33
2023-06-11T02:04:10.560Z,36
2023-06-11T02:06:42.275Z,32
2023-06-11T02:09:13.478Z,36
2023-06-11T02:11:44.305Z,36
2023-06-11T02:14:15.152Z,29
2023-06-11T02:16:45.907Z,33
2023-06-11T02:19:17.031Z,36
2023-06-11T02:21:48.313Z,37
2023-06-11T02:24:19.334Z,30
2023-06-11T02:26:50.260Z,32
2023-06-11T02:29:20.854Z,31
2023-06-11T02:31:54.356Z,30
2023-06-11T02:34:25.708Z,37
2023-06-11T02:36:57.320Z,32
2023-06-11T02:39:28.242Z,29
2023-06-11T02:41:59.062Z,35
2023-06-11T02:44:29.735Z,35
2023-06-11T02:47:00.604Z,31
2023-06-11T02:49:31.318Z,32
2023-06-11T02:52:02.276Z,33
2023-06-11T02:54:33.253Z,32
2023-06-11T02:57:03.745Z,37
2023-06-11T02:59:34.609Z,29
2023-06-11T03:02:04.200Z,36
2023-06-11T03:04:36.227Z,35
2023-06-11T03:07:07.236Z,32
2023-06-11T03:09:38.243Z,28
2023-06-11T03:12:09.045Z,29
2023-06-11T03:14:39.773Z,36
2023-06-11T03:17:10.082Z,26
2023-06-11T03:19:40.833Z,37
2023-06-11T03:22:11.901Z,32
2023-06-11T03:24:42.946Z,30
2023-06-11T03:27:15.645Z,28
2023-06-11T03:29:46.886Z,28
2023-06-11T03:32:17.355Z,29
2023-06-11T03:34:47.056Z,32
2023-06-11T03:37:17.863Z,28
2023-06-11T03:39:47.975Z,30
2023-06-11T03:42:19.945Z,30
2023-06-11T03:44:51.968Z,26
2023-06-11T03:47:24.310Z,28
2023-06-11T03:49:55.340Z,29
2023-06-11T03:52:26.152Z,27
2023-06-11T03:54:55.565Z,28
2023-06-11T03:57:27.716Z,26
2023-06-11T03:59:58.289Z,29
2023-06-11T04:02:29.315Z,27
2023-06-11T04:05:00.343Z,26
2023-06-11T04:07:30.894Z,30
2023-06-11T04:10:01.928Z,27
2023-06-11T04:12:32.648Z,31
2023-06-11T04:15:03.219Z,29
2023-06-11T04:17:34.990Z,32
2023-06-11T04:20:05.560Z,31
2023-06-11T04:22:36.614Z,26
2023-06-11T04:25:07.117Z,29
2023-06-11T04:27:38.032Z,28
2023-06-11T04:30:08.453Z,31
2023-06-11T04:32:39.181Z,27
2023-06-11T04:35:08.457Z,28
2023-06-11T04:37:40.102Z,24
2023-06-11T04:40:10.948Z,25
2023-06-11T04:42:42.074Z,27
2023-06-11T04:45:13.144Z,25
2023-06-11T04:47:44.038Z,25
2023-06-11T04:50:15.739Z,30
2023-06-11T04:52:46.763Z,28
2023-06-11T04:55:17.534Z,36
2023-06-11T04:57:48.558Z,29
2023-06-11T05:00:19.250Z,26
2023-06-11T05:02:49.817Z,28
2023-06-11T05:05:20.523Z,27
2023-06-11T05:07:49.903Z,22
2023-06-11T05:10:21.922Z,29
2023-06-11T05:12:59.470Z,30
2023-06-11T05:15:30.552Z,29
2023-06-11T05:18:02.139Z,23
2023-06-11T05:20:33.696Z,24
2023-06-11T05:23:04.703Z,28
2023-06-11T05:25:37.019Z,27
2023-06-11T05:28:07.943Z,35
2023-06-11T05:30:38.589Z,43
2023-06-11T05:33:12.264Z,53
2023-06-11T05:35:42.986Z,48
2023-06-11T05:38:13.976Z,51
2023-06-11T05:40:45.266Z,37
2023-06-11T05:43:16.355Z,32
2023-06-11T05:45:47.251Z,61
2023-06-11T05:48:18.276Z,45
2023-06-11T05:50:51.038Z,52
2023-06-11T05:53:21.890Z,43
2023-06-11T05:55:55.316Z,35
2023-06-11T05:58:24.029Z,27
2023-06-11T06:00:54.659Z,29
2023-06-11T06:03:25.847Z,22
2023-06-11T06:05:55.425Z,26
2023-06-11T06:08:26.564Z,26
2023-06-11T06:10:57.474Z,52
2023-06-11T06:13:28.560Z,61
2023-06-11T06:15:59.244Z,50
2023-06-11T06:18:29.810Z,37
2023-06-11T06:21:00.390Z,43
2023-06-11T06:23:34.170Z,26
2023-06-11T06:26:05.278Z,29
2023-06-11T06:28:36.283Z,28
2023-06-11T06:31:07.093Z,44
2023-06-11T06:33:38.042Z,33
2023-06-11T06:36:09.084Z,30
2023-06-11T06:38:41.503Z,44
2023-06-11T06:41:10.813Z,37
2023-06-11T06:43:43.405Z,24
2023-06-11T06:46:14.586Z,35
2023-06-11T06:48:45.153Z,28
2023-06-11T06:51:16.415Z,31
2023-06-11T06:53:49.852Z,31
2023-06-11T06:56:24.699Z,32
2023-06-11T06:58:55.238Z,31
2023-06-11T07:01:26.022Z,31
2023-06-11T07:03:57.010Z,33
2023-06-11T07:06:28.195Z,24
2023-06-11T07:08:58.047Z,48
2023-06-11T07:11:32.757Z,26
2023-06-11T07:14:03.458Z,36
2023-06-11T07:16:34.400Z,29
2023-06-11T07:19:05.396Z,40
2023-06-11T07:21:36.088Z,43
2023-06-11T07:24:06.778Z,30
2023-06-11T07:26:40.880Z,23
2023-06-11T07:29:12.895Z,25
2023-06-11T07:31:43.755Z,29
2023-06-11T07:34:15.008Z,25
2023-06-11T07:36:45.603Z,21
2023-06-11T07:39:16.834Z,20
2023-06-11T07:41:46.067Z,33
2023-06-11T07:44:17.991Z,29
2023-06-11T07:46:48.760Z,21
2023-06-11T07:49:19.655Z,25
2023-06-11T07:51:50.558Z,29
2023-06-11T07:54:21.657Z,23
2023-06-11T07:56:52.440Z,25
2023-06-11T07:59:23.681Z,16
2023-06-11T08:01:54.507Z,21
2023-06-11T08:04:25.572Z,21
2023-06-11T08:06:56.058Z,27
2023-06-11T08:09:30.058Z,21
2023-06-11T08:12:00.557Z,17
2023-06-11T08:14:31.339Z,21
2023-06-11T08:17:02.103Z,35
2023-06-11T08:19:32.673Z,23
2023-06-11T08:22:01.868Z,16
2023-06-11T08:24:32.915Z,18
2023-06-11T08:27:03.613Z,16
2023-06-11T08:29:34.373Z,19
2023-06-11T08:32:05.493Z,20
2023-06-11T08:34:36.460Z,16
2023-06-11T08:37:07.436Z,19
2023-06-11T08:39:38.655Z,30
2023-06-11T08:42:10.862Z,15
2023-06-11T08:44:41.563Z,21
2023-06-11T08:47:12.126Z,19
2023-06-11T08:49:42.849Z,20
2023-06-11T08:52:14.665Z,17
2023-06-11T08:54:45.008Z,16
2023-06-11T08:57:16.598Z,16
2023-06-11T08:59:47.424Z,19
2023-06-11T09:02:18.179Z,19
2023-06-11T09:04:48.972Z,20
2023-06-11T09:07:19.838Z,17
2023-06-11T09:09:50.171Z,19
2023-06-11T09:12:20.619Z,19
2023-06-11T09:14:51.904Z,24
2023-06-11T09:17:22.404Z,21
2023-06-11T09:19:53.300Z,21
2023-06-11T09:22:23.843Z,23
2023-06-11T09:24:55.634Z,24
2023-06-11T09:27:26.288Z,31
2023-06-11T09:29:56.938Z,35
2023-06-11T09:32:33.625Z,60
2023-06-11T09:34:58.984Z,28
2023-06-11T09:37:29.258Z,27
2023-06-11T09:40:00.206Z,45
2023-06-11T09:42:30.829Z,39
2023-06-11T09:45:01.356Z,40
2023-06-11T09:47:32.164Z,43
2023-06-11T09:50:00.930Z,63
2023-06-11T09:52:30.431Z,46
2023-06-11T09:55:00.744Z,35
2023-06-11T09:57:31.052Z,29
2023-06-11T10:00:02.460Z,35
2023-06-11T10:02:31.515Z,30
2023-06-11T10:05:03.283Z,31
2023-06-11T10:07:33.710Z,29
2023-06-11T10:10:05.417Z,24
2023-06-11T10:12:35.702Z,25
2023-06-11T10:15:06.559Z,28
2023-06-11T10:17:37.683Z,23
2023-06-11T10:20:08.689Z,29
2023-06-11T10:22:39.216Z,25
2023-06-11T10:25:09.800Z,32
2023-06-11T10:27:40.128Z,45
2023-06-11T10:30:12.337Z,32
2023-06-11T10:32:42.979Z,35
2023-06-11T10:35:13.520Z,33
2023-06-11T10:37:43.905Z,31
2023-06-11T10:40:15.492Z,33
2023-06-11T10:42:43.844Z,30
2023-06-11T10:45:14.525Z,24
2023-06-11T10:47:45.418Z,28
2023-06-11T10:50:16.962Z,28
2023-06-11T10:52:46.930Z,28
2023-06-11T10:55:15.812Z,25
2023-06-11T10:57:47.630Z,31
2023-06-11T11:00:18.065Z,29
2023-06-11T11:02:49.223Z,28
2023-06-11T11:05:20.038Z,28
2023-06-11T11:07:51.736Z,24
2023-06-11T11:10:22.521Z,28
2023-06-11T11:12:54.586Z,28
2023-06-11T11:15:25.221Z,32
2023-06-11T11:17:55.577Z,35
2023-06-11T11:20:26.284Z,32
2023-06-11T11:22:57.517Z,24
2023-06-11T11:25:28.529Z,24
2023-06-11T11:28:00.179Z,29
2023-06-11T11:30:31.239Z,35
2023-06-11T11:33:02.285Z,29
2023-06-11T11:35:32.942Z,24
2023-06-11T11:38:04.049Z,24
2023-06-11T11:40:34.301Z,19
2023-06-11T11:43:05.448Z,29
2023-06-11T11:45:36.007Z,23
2023-06-11T11:48:06.619Z,24
2023-06-11T11:50:37.586Z,28
2023-06-11T11:53:11.304Z,28
2023-06-11T11:55:52.118Z,25
2023-06-11T11:58:12.298Z,24
2023-06-11T12:00:42.921Z,24
2023-06-11T12:03:13.762Z,21
2023-06-11T12:05:45.112Z,28
2023-06-11T12:08:16.671Z,31
2023-06-11T12:10:48.355Z,24
2023-06-11T12:13:18.529Z,28
2023-06-11T12:15:49.190Z,23
2023-06-11T12:18:20.126Z,25
2023-06-11T12:20:50.628Z,23
2023-06-11T12:23:21.191Z,23
2023-06-11T12:25:51.631Z,20
2023-06-11T12:28:22.211Z,20
2023-06-11T12:30:52.682Z,19
2023-06-11T12:33:23.201Z,21
2023-06-11T12:35:53.592Z,19
2023-06-11T12:38:26.102Z,13
2023-06-11T12:40:56.717Z,19
2023-06-11T12:43:27.686Z,20
2023-06-11T12:45:59.457Z,16
2023-06-11T12:48:30.481Z,28
2023-06-11T12:51:01.019Z,16
2023-06-11T12:53:31.355Z,16
2023-06-11T12:56:02.396Z,22
2023-06-11T12:58:32.729Z,21
2023-06-11T13:01:03.252Z,23
2023-06-11T13:03:34.162Z,23
2023-06-11T13:06:05.565Z,24
2023-06-11T13:08:36.378Z,29
2023-06-11T13:11:06.867Z,21
2023-06-11T13:13:37.997Z,24
2023-06-11T13:16:08.780Z,30
2023-06-11T13:18:39.925Z,23
2023-06-11T13:21:11.635Z,18
2023-06-11T13:23:42.240Z,16
2023-06-11T13:26:12.637Z,40
2023-06-11T13:28:43.362Z,23
2023-06-11T13:31:14.202Z,26
2023-06-11T13:33:44.575Z,21
2023-06-11T13:36:15.257Z,27
2023-06-11T13:38:46.163Z,30
2023-06-11T13:41:16.841Z,31
2023-06-11T13:43:48.206Z,16
2023-06-11T13:46:18.614Z,25
2023-06-11T13:48:50.045Z,31
2023-06-11T13:51:20.717Z,20
2023-06-11T13:53:51.793Z,25
2023-06-11T13:56:22.174Z,25
2023-06-11T13:58:52.731Z,27
2023-06-11T14:01:24.050Z,26
2023-06-11T14:03:55.951Z,24
2023-06-11T14:06:27.013Z,17
2023-06-11T14:08:57.241Z,25
2023-06-11T14:11:27.756Z,32
2023-06-11T14:13:58.509Z,17
2023-06-11T14:16:29.155Z,19
2023-06-11T14:18:59.878Z,16
2023-06-11T14:21:30.932Z,22
2023-06-11T14:24:01.568Z,23
2023-06-11T14:26:32.659Z,16
2023-06-11T14:29:04.328Z,15
2023-06-11T14:31:35.123Z,17
2023-06-11T14:34:06.595Z,12
2023-06-11T14:36:36.971Z,19
2023-06-11T14:39:07.439Z,12
2023-06-11T14:41:38.214Z,17
2023-06-11T14:44:08.820Z,21
2023-06-11T14:46:40.088Z,12
2023-06-11T14:49:11.694Z,17
2023-06-11T14:51:41.766Z,16
2023-06-11T14:54:12.157Z,12
2023-06-11T14:56:43.145Z,20
2023-06-11T14:59:13.962Z,28
2023-06-11T15:01:44.808Z,12
2023-06-11T15:04:15.618Z,19
2023-06-11T15:06:46.179Z,21
2023-06-11T15:09:16.849Z,16
2023-06-11T15:11:48.986Z,12
2023-06-11T15:14:19.348Z,17
2023-06-11T15:16:48.650Z,24
2023-06-11T15:19:19.004Z,12
2023-06-11T15:21:49.989Z,12
2023-06-11T15:24:21.263Z,12
2023-06-11T15:26:51.931Z,19
2023-06-11T15:29:22.558Z,16
2023-06-11T15:31:53.187Z,12
2023-06-11T15:34:23.656Z,15
2023-06-11T15:36:54.490Z,24
2023-06-11T15:39:25.196Z,28
2023-06-11T15:41:56.340Z,34
2023-06-11T15:44:26.900Z,25
2023-06-11T15:46:58.320Z,27
2023-06-11T15:49:29.149Z,27
2023-06-11T15:51:59.899Z,25
2023-06-11T15:54:30.562Z,29
2023-06-11T15:57:01.852Z,14
2023-06-11T15:59:32.502Z,20
2023-06-11T16:02:03.454Z,21
2023-06-11T16:04:34.569Z,20
2023-06-11T16:07:05.301Z,21
2023-06-11T16:09:36.280Z,20
2023-06-11T16:12:08.254Z,20
2023-06-11T16:14:38.953Z,17
2023-06-11T16:17:08.490Z,28
2023-06-11T16:19:38.703Z,19
2023-06-11T16:22:12.303Z,35
2023-06-11T16:24:40.685Z,29
2023-06-11T16:27:12.137Z,30
2023-06-11T16:29:43.352Z,23
2023-06-11T16:32:14.284Z,23
2023-06-11T16:34:43.030Z,23
2023-06-11T16:37:12.313Z,23
2023-06-11T16:39:42.701Z,20
2023-06-11T16:42:14.135Z,18
2023-06-11T16:44:43.163Z,24
2023-06-11T16:47:14.427Z,19
2023-06-11T16:49:45.024Z,21
2023-06-11T16:52:15.744Z,17
2023-06-11T16:54:46.316Z,16
2023-06-11T16:57:17.188Z,18
2023-06-11T16:59:47.709Z,20
2023-06-11T17:02:18.383Z,19
2023-06-11T17:04:48.802Z,19
2023-06-11T17:07:19.638Z,19
2023-06-11T17:09:50.793Z,20
2023-06-11T17:12:21.872Z,16
2023-06-11T17:14:54.477Z,16
2023-06-11T17:17:24.186Z,15
2023-06-11T17:19:55.237Z,23
2023-06-11T17:22:27.295Z,20
2023-06-11T17:24:59.407Z,20
2023-06-11T17:27:30.663Z,18
2023-06-11T17:30:03.161Z,22
2023-06-11T17:32:39.408Z,16
2023-06-11T17:35:09.941Z,16
2023-06-11T17:37:40.305Z,16
2023-06-11T17:40:12.971Z,18
2023-06-11T17:42:42.682Z,16
2023-06-11T17:45:13.242Z,18
2023-06-11T17:47:43.877Z,16
2023-06-11T17:50:15.547Z,12
2023-06-11T17:52:46.605Z,23
2023-06-11T17:55:17.014Z,21
2023-06-11T17:57:47.694Z,29
2023-06-11T18:00:16.877Z,20
2023-06-11T18:02:48.495Z,16
2023-06-11T18:05:18.972Z,30
2023-06-11T18:07:49.607Z,35
2023-06-11T18:10:20.092Z,43
2023-06-11T18:12:50.841Z,27
2023-06-11T18:17:51.889Z,25
2023-06-11T18:20:22.840Z,24
2023-06-11T18:22:53.157Z,17
2023-06-11T18:25:24.187Z,25
2023-06-11T18:27:55.427Z,24
2023-06-11T18:30:26.597Z,28
2023-06-11T18:32:57.446Z,16
2023-06-11T18:35:26.136Z,21
2023-06-11T18:37:57.458Z,24
2023-06-11T18:40:27.650Z,24
2023-06-11T18:42:58.479Z,19
2023-06-11T18:45:29.695Z,18
2023-06-11T18:48:03.282Z,23
2023-06-11T18:50:33.957Z,24
2023-06-11T18:53:04.537Z,33
2023-06-11T18:55:37.392Z,22
2023-06-11T18:58:11.232Z,32
2023-06-11T19:00:41.529Z,26
2023-06-11T19:03:12.813Z,38
2023-06-11T19:05:43.066Z,35
2023-06-11T19:08:13.558Z,28
2023-06-11T19:10:44.298Z,30
2023-06-11T19:13:14.485Z,30
2023-06-11T19:15:46.880Z,26
2023-06-11T19:18:17.527Z,27
2023-06-11T19:20:48.313Z,28
2023-06-11T19:23:18.721Z,27
2023-06-11T19:25:49.318Z,24
2023-06-11T19:28:19.776Z,28
2023-06-11T19:30:51.354Z,22
2023-06-11T19:33:21.740Z,26
2023-06-11T19:35:52.530Z,41
2023-06-11T19:38:23.045Z,40
2023-06-11T19:40:53.713Z,24
2023-06-11T19:43:24.341Z,27
2023-06-11T19:45:54.611Z,24
2023-06-11T19:48:25.323Z,22
2023-06-11T19:50:55.969Z,29
2023-06-11T19:53:24.524Z,28
2023-06-11T19:55:55.258Z,36
2023-06-11T19:58:25.954Z,35
2023-06-11T20:00:56.963Z,25
2023-06-11T20:03:27.092Z,23
2023-06-11T20:05:57.529Z,21
2023-06-11T20:08:28.268Z,20
2023-06-11T20:10:58.823Z,26
2023-06-11T20:13:30.024Z,21
2023-06-11T20:16:00.470Z,20
2023-06-11T20:18:31.571Z,20
2023-06-11T20:21:02.339Z,23
2023-06-11T20:23:33.431Z,32
2023-06-11T20:26:04.252Z,24
2023-06-11T20:28:34.888Z,24
2023-06-11T20:31:07.648Z,24
2023-06-11T20:33:38.112Z,27
2023-06-11T20:36:08.928Z,23
2023-06-11T20:38:39.877Z,30
2023-06-11T20:41:12.082Z,27
2023-06-11T20:43:43.068Z,43
2023-06-11T20:46:27.609Z,28
2023-06-11T20:48:46.661Z,22
2023-06-11T20:51:17.427Z,27
2023-06-11T20:53:48.085Z,28
2023-06-11T20:56:19.755Z,29
2023-06-11T20:58:50.592Z,24
2023-06-11T21:01:22.332Z,20
2023-06-11T21:03:53.020Z,24
2023-06-11T21:06:23.557Z,28
2023-06-11T21:08:54.441Z,28
2023-06-11T21:11:25.161Z,21
2023-06-11T21:14:08.745Z,25
2023-06-11T21:16:24.837Z,25
2023-06-11T21:18:55.571Z,24
2023-06-11T21:21:26.041Z,32
2023-06-11T21:23:57.455Z,28
2023-06-11T21:26:28.119Z,27
2023-06-11T21:28:59.694Z,20
2023-06-11T21:31:30.160Z,23
2023-06-11T21:34:00.504Z,27
2023-06-11T21:36:31.441Z,28
2023-06-11T21:39:02.047Z,20
2023-06-11T21:41:32.584Z,21
2023-06-11T21:44:03.466Z,23
2023-06-11T21:46:34.580Z,20
2023-06-11T21:49:05.240Z,23
2023-06-11T21:51:36.041Z,21
2023-06-11T21:54:06.813Z,21
2023-06-11T21:56:38.024Z,19
2023-06-11T21:59:08.491Z,23
2023-06-11T22:01:39.238Z,20
2023-06-11T22:04:09.974Z,24
2023-06-11T22:06:40.533Z,19
2023-06-11T22:09:11.238Z,27
2023-06-11T22:11:42.127Z,24
2023-06-11T22:14:13.033Z,24
2023-06-11T22:16:44.146Z,28
2023-06-11T22:19:14.723Z,21
2023-06-11T22:21:45.491Z,25
2023-06-11T22:24:16.099Z,28
2023-06-11T22:26:45.106Z,31
2023-06-11T22:29:15.742Z,22
2023-06-11T22:34:18.817Z,23
2023-06-11T22:36:50.196Z,25
2023-06-11T22:39:20.981Z,21
2023-06-11T22:41:52.105Z,24
2023-06-11T22:44:23.154Z,27
2023-06-11T22:46:53.884Z,21
2023-06-11T22:49:24.394Z,20
2023-06-11T22:51:55.154Z,25
2023-06-11T22:54:25.880Z,28
2023-06-11T22:56:56.349Z,28
2023-06-11T22:59:27.126Z,27
2023-06-11T23:01:57.885Z,24
2023-06-11T23:04:28.751Z,24
2023-06-11T23:06:59.308Z,23
2023-06-11T23:09:29.663Z,23
2023-06-11T23:12:00.274Z,20
2023-06-11T23:14:30.279Z,26
2023-06-11T23:17:00.895Z,22
2023-06-11T23:19:31.846Z,18
2023-06-11T23:22:02.582Z,20
2023-06-11T23:24:33.613Z,21
2023-06-11T23:27:04.729Z,20
2023-06-11T23:29:35.736Z,23
2023-06-11T23:32:06.552Z,27
2023-06-11T23:34:37.114Z,17
2023-06-11T23:37:07.933Z,23
2023-06-11T23:39:40.829Z,22
2023-06-11T23:42:11.722Z,20
2023-06-11T23:44:42.791Z,20
2023-06-11T23:47:13.647Z,20
2023-06-11T23:49:44.600Z,17
2023-06-11T23:52:15.787Z,20
2023-06-11T23:54:48.411Z,21
2023-06-11T23:57:19.162Z,21
2023-06-11T23:59:50.260Z,20
